Arcadia, Texas
Current Conditions -  °F | °C
As of 11:53 PM on Wednesday 26 Nov 2014 (Local Time) from KLVJ Reporting Station
Clear Clear  
Wind Chill: 45°   Ceiling: Unl
Heat Index: 48°   Visibility: 10mi
Dew Point: 43°   Wind: 7mph
Humidity: 83%   Direction: 80°E
Pressure: 30.34"   Gusts: NA
Location:  29.3723°N, 95.1328°W
Report Text: KLVJ 270553Z AUTO 08006KT 10SM CLR 09/06 A3034 RMK AO2 SLP272 T00890061 10178 20089 402280078 53015
Loading
Personal Weather Stations






























Interactive Weather Map New forecast layout! Learn more

10-Day Weather Forecast

Advertisements
Track Severe Weather on mobile